createdAt,value
2018-01-11T00:01:16.314Z,10.70
2018-01-11T00:03:43.739Z,10.43
2018-01-11T00:06:11.167Z,10.43
2018-01-11T00:08:39.519Z,9.80
2018-01-11T00:11:06.956Z,10.20
2018-01-11T00:13:34.383Z,9.97
2018-01-11T00:16:01.811Z,10.47
2018-01-11T00:18:29.247Z,10.37
2018-01-11T00:20:56.679Z,11.82
2018-01-11T00:23:24.115Z,10.80
2018-01-11T00:25:51.547Z,11.80
2018-01-11T00:28:18.983Z,11.03
2018-01-11T00:30:46.415Z,10.80
2018-01-11T00:33:13.847Z,11.57
2018-01-11T00:35:41.278Z,11.05
2018-01-11T00:38:08.875Z,11.07
2018-01-11T00:40:36.296Z,11.80
2018-01-11T00:43:03.783Z,11.67
2018-01-11T00:45:31.235Z,11.60
2018-01-11T00:47:58.680Z,11.70
2018-01-11T00:50:26.111Z,11.05
2018-01-11T00:52:53.551Z,11.47
2018-01-11T00:55:20.977Z,10.83
2018-01-11T00:57:48.607Z,10.10
2018-01-11T01:00:16.027Z,9.70
2018-01-11T01:02:43.458Z,11.10
2018-01-11T01:05:11.195Z,10.77
2018-01-11T01:07:38.635Z,10.97
2018-01-11T01:10:06.053Z,10.37
2018-01-11T01:12:33.492Z,10.97
2018-01-11T01:15:00.918Z,11.60
2018-01-11T01:17:28.347Z,11.70
2018-01-11T01:19:55.779Z,10.63
2018-01-11T01:22:23.979Z,10.30
2018-01-11T01:24:51.396Z,11.23
2018-01-11T01:27:18.835Z,10.53
2018-01-11T01:29:46.251Z,10.40
2018-01-11T01:32:13.683Z,10.63
2018-01-11T01:34:41.883Z,11.30
2018-01-11T01:37:09.355Z,11.20
2018-01-11T01:39:36.787Z,12.07
2018-01-11T01:42:04.225Z,11.43
2018-01-11T01:44:31.658Z,12.10
2018-01-11T01:46:59.091Z,12.57
2018-01-11T01:49:26.511Z,11.70
2018-01-11T01:51:53.954Z,11.20
2018-01-11T01:54:22.139Z,12.47
2018-01-11T01:56:49.566Z,12.23
2018-01-11T01:59:16.991Z,12.93
2018-01-11T02:01:44.424Z,13.23
2018-01-11T02:04:11.851Z,12.10
2018-01-11T02:06:39.278Z,13.27
2018-01-11T02:09:06.715Z,12.60
2018-01-11T02:11:34.139Z,12.27
2018-01-11T02:14:01.579Z,11.83
2018-01-11T02:16:29.000Z,12.60
2018-01-11T02:18:56.426Z,11.93
2018-01-11T02:21:23.855Z,13.40
2018-01-11T02:23:51.396Z,13.60
2018-01-11T02:26:18.807Z,13.63
2018-01-11T02:28:46.243Z,14.73
2018-01-11T02:31:13.676Z,13.27
2018-01-11T02:33:41.106Z,13.20
2018-01-11T02:36:08.531Z,12.07
2018-01-11T02:38:35.978Z,14.07
2018-01-11T02:41:03.408Z,13.80
2018-01-11T02:43:30.923Z,12.50
2018-01-11T02:45:58.439Z,13.80
2018-01-11T02:48:25.875Z,14.17
2018-01-11T02:50:53.304Z,13.53
2018-01-11T02:53:20.735Z,13.73
2018-01-11T02:55:48.155Z,14.50
2018-01-11T02:58:15.595Z,13.02
2018-01-11T03:00:43.019Z,12.17
2018-01-11T03:03:11.215Z,16.07
2018-01-11T03:05:38.698Z,15.67
2018-01-11T03:08:06.140Z,14.10
2018-01-11T03:10:33.563Z,14.10
2018-01-11T03:13:00.991Z,14.30
2018-01-11T03:15:28.423Z,13.52
2018-01-11T03:17:55.871Z,13.70
2018-01-11T03:20:23.292Z,13.90
2018-01-11T03:22:51.486Z,13.53
2018-01-11T03:25:18.910Z,13.47
2018-01-11T03:27:46.339Z,13.70
2018-01-11T03:30:13.768Z,12.83
2018-01-11T03:32:41.207Z,14.37
2018-01-11T03:35:08.643Z,13.65
2018-01-11T03:37:36.866Z,13.60
2018-01-11T03:40:04.305Z,15.20
2018-01-11T03:42:31.735Z,13.80
2018-01-11T03:44:59.150Z,12.97
2018-01-11T03:47:26.606Z,15.60
2018-01-11T03:49:54.032Z,16.07
2018-01-11T03:52:21.458Z,15.80
2018-01-11T03:54:49.642Z,16.40
2018-01-11T03:57:17.074Z,16.03
2018-01-11T03:59:44.514Z,15.60
2018-01-11T04:02:11.949Z,13.40
2018-01-11T04:04:39.379Z,13.50
2018-01-11T04:07:06.807Z,14.32
2018-01-11T04:09:34.242Z,14.02
2018-01-11T04:12:01.667Z,14.47
2018-01-11T04:14:29.109Z,14.03
2018-01-11T04:16:56.530Z,12.93
2018-01-11T04:19:24.115Z,13.93
2018-01-11T04:21:51.530Z,13.80
2018-01-11T04:24:19.730Z,13.73
2018-01-11T04:26:47.154Z,13.10
2018-01-11T04:29:14.591Z,13.33
2018-01-11T04:31:42.023Z,13.53
2018-01-11T04:34:09.463Z,13.95
2018-01-11T04:36:36.882Z,15.13
2018-01-11T04:39:04.317Z,14.53
2018-01-11T04:41:31.747Z,15.27
2018-01-11T04:43:59.175Z,14.17
2018-01-11T04:46:26.595Z,14.90
2018-01-11T04:48:54.035Z,13.20
2018-01-11T04:51:21.456Z,14.00
2018-01-11T04:53:48.891Z,13.40
2018-01-11T04:56:16.315Z,14.27
2018-01-11T04:58:43.748Z,13.20
2018-01-11T05:01:11.178Z,14.07
2018-01-11T05:03:38.606Z,13.33
2018-01-11T05:06:06.795Z,14.20
2018-01-11T05:08:34.231Z,13.57
2018-01-11T05:11:01.651Z,16.47
2018-01-11T05:13:29.090Z,13.40
2018-01-11T05:15:56.518Z,13.10
2018-01-11T05:18:23.959Z,13.90
2018-01-11T05:20:51.387Z,12.50
2018-01-11T05:23:18.827Z,13.20
2018-01-11T05:25:46.412Z,13.67
2018-01-11T05:28:14.615Z,11.25
2018-01-11T05:30:42.043Z,13.10
2018-01-11T05:33:09.479Z,12.87
2018-01-11T05:35:36.916Z,12.27
2018-01-11T05:38:04.352Z,13.93
2018-01-11T05:40:31.783Z,13.35
2018-01-11T05:42:59.210Z,13.20
2018-01-11T05:45:26.635Z,13.37
2018-01-11T05:47:54.067Z,12.13
2018-01-11T05:50:21.495Z,13.57
2018-01-11T05:52:49.694Z,15.20
2018-01-11T05:55:17.122Z,15.00
2018-01-11T05:57:44.560Z,14.73
2018-01-11T06:00:11.989Z,14.90
2018-01-11T06:02:39.406Z,13.80
2018-01-11T06:05:06.943Z,13.33
2018-01-11T06:07:34.364Z,12.97
2018-01-11T06:10:01.824Z,12.27
2018-01-11T06:12:29.250Z,13.48
2018-01-11T06:14:56.690Z,12.73
2018-01-11T06:17:24.135Z,12.60
2018-01-11T06:19:52.336Z,13.33
2018-01-11T06:22:19.767Z,11.90
2018-01-11T06:24:47.211Z,12.43
2018-01-11T06:27:14.644Z,11.43
2018-01-11T06:29:42.089Z,10.87
2018-01-11T06:32:09.524Z,14.10
2018-01-11T06:34:36.955Z,11.67
2018-01-11T06:37:04.388Z,11.90
2018-01-11T06:39:32.587Z,11.65
2018-01-11T06:42:00.025Z,11.53
2018-01-11T06:44:27.447Z,11.53
2018-01-11T06:46:54.881Z,12.27
2018-01-11T06:49:22.299Z,11.80
2018-01-11T06:51:50.504Z,12.67
2018-01-11T06:54:17.965Z,11.20
2018-01-11T06:56:45.428Z,11.23
2018-01-11T06:59:12.847Z,10.33
2018-01-11T07:01:40.282Z,11.70
2018-01-11T07:04:07.728Z,10.40
2018-01-11T07:06:35.130Z,11.67
2018-01-11T07:09:02.551Z,11.17
2018-01-11T07:11:30.759Z,10.60
2018-01-11T07:13:58.186Z,12.45
2018-01-11T07:16:25.606Z,12.87
2018-01-11T07:18:53.038Z,12.30
2018-01-11T07:21:20.458Z,11.97
2018-01-11T07:23:48.655Z,11.40
2018-01-11T07:26:16.124Z,13.30
2018-01-11T07:28:43.607Z,11.90
2018-01-11T07:31:11.005Z,12.13
2018-01-11T07:33:38.476Z,12.50
2018-01-11T07:36:06.626Z,12.20
2018-01-11T07:38:34.060Z,13.07
2018-01-11T07:41:01.487Z,13.57
2018-01-11T07:43:28.918Z,12.93
2018-01-11T07:45:56.343Z,14.40
2018-01-11T07:48:23.764Z,13.57
2018-01-11T07:50:51.214Z,13.13
2018-01-11T07:53:18.634Z,13.50
2018-01-11T07:55:46.070Z,14.93
2018-01-11T07:58:14.255Z,13.63
2018-01-11T08:00:41.686Z,12.63
2018-01-11T08:03:09.108Z,13.50
2018-01-11T08:05:36.550Z,13.30
2018-01-11T08:08:03.979Z,13.03
2018-01-11T08:10:31.414Z,12.37
2018-01-11T08:12:58.827Z,12.10
2018-01-11T08:15:26.259Z,13.43
2018-01-11T08:17:53.678Z,11.57
2018-01-11T08:20:21.119Z,13.90
2018-01-11T08:22:48.699Z,13.03
2018-01-11T08:25:16.890Z,13.77
2018-01-11T08:27:44.318Z,13.50
2018-01-11T08:30:11.742Z,13.50
2018-01-11T08:32:39.188Z,12.07
2018-01-11T08:35:06.598Z,13.67
2018-01-11T08:37:34.804Z,13.03
2018-01-11T08:40:02.226Z,11.80
2018-01-11T08:42:29.659Z,13.23
2018-01-11T08:44:57.123Z,13.27
2018-01-11T08:47:24.551Z,14.13
2018-01-11T08:49:51.975Z,13.80
2018-01-11T08:52:19.407Z,13.80
2018-01-11T08:54:47.627Z,15.40
2018-01-11T08:57:15.067Z,14.13
2018-01-11T08:59:42.490Z,14.03
2018-01-11T09:02:09.915Z,13.63
2018-01-11T09:04:37.344Z,14.47
2018-01-11T09:07:04.766Z,15.47
2018-01-11T09:09:32.958Z,14.00
2018-01-11T09:12:00.378Z,13.03
2018-01-11T09:14:27.815Z,13.43
2018-01-11T09:16:55.239Z,13.00
2018-01-11T09:19:22.666Z,11.60
2018-01-11T09:21:50.087Z,13.90
2018-01-11T09:24:17.520Z,17.83
2018-01-11T09:26:44.939Z,16.33
2018-01-11T09:29:12.366Z,13.90
2018-01-11T09:31:39.787Z,12.80
2018-01-11T09:34:07.223Z,12.27
2018-01-11T09:36:34.640Z,13.57
2018-01-11T09:39:02.063Z,15.67
2018-01-11T09:41:29.483Z,13.13
2018-01-11T09:43:56.915Z,12.30
2018-01-11T09:46:25.107Z,12.73
2018-01-11T09:48:52.546Z,14.10
2018-01-11T09:51:19.966Z,16.93
2018-01-11T09:53:47.399Z,13.93
2018-01-11T09:56:14.832Z,13.80
2018-01-11T09:58:42.247Z,17.50
2018-01-11T10:01:09.678Z,16.57
2018-01-11T10:03:37.098Z,16.43
2018-01-11T10:06:04.534Z,13.00
2018-01-11T10:08:32.135Z,13.77
2018-01-11T10:10:59.570Z,13.40
2018-01-11T10:13:27.015Z,12.60
2018-01-11T10:15:54.448Z,13.20
2018-01-11T10:18:22.635Z,12.73
2018-01-11T10:20:50.075Z,13.07
2018-01-11T10:23:17.495Z,14.40
2018-01-11T10:25:44.933Z,14.03
2018-01-11T10:28:12.351Z,12.53
2018-01-11T10:30:40.548Z,12.37
2018-01-11T10:33:07.979Z,13.70
2018-01-11T10:35:35.398Z,12.70
2018-01-11T10:38:02.839Z,11.83
2018-01-11T10:40:30.405Z,12.87
2018-01-11T10:42:58.192Z,12.20
2018-01-11T10:45:25.619Z,11.60
2018-01-11T10:47:53.050Z,11.47
2018-01-11T10:50:20.479Z,11.67
2018-01-11T10:52:47.911Z,12.63
2018-01-11T10:55:15.339Z,12.70
2018-01-11T10:57:42.767Z,12.50
2018-01-11T11:00:10.190Z,14.83
2018-01-11T11:02:43.182Z,14.00
2018-01-11T11:05:11.370Z,13.93
2018-01-11T11:07:38.819Z,14.57
2018-01-11T11:10:07.015Z,13.87
2018-01-11T11:12:34.447Z,12.37
2018-01-11T11:15:01.883Z,11.00
2018-01-11T11:17:29.315Z,12.97
2018-01-11T11:19:56.751Z,12.70
2018-01-11T11:22:24.183Z,10.70
2018-01-11T11:24:51.620Z,13.57
2018-01-11T11:27:19.047Z,12.73
2018-01-11T11:29:46.482Z,13.87
2018-01-11T11:32:13.906Z,12.63
2018-01-11T11:34:41.435Z,12.23
2018-01-11T11:37:08.863Z,13.23
2018-01-11T11:39:36.407Z,12.90
2018-01-11T11:42:03.839Z,13.57
2018-01-11T11:44:31.270Z,11.63
2018-01-11T11:46:58.702Z,13.70
2018-01-11T11:49:26.148Z,12.80
2018-01-11T11:51:53.576Z,12.97
2018-01-11T11:54:21.139Z,13.00
2018-01-11T11:56:48.575Z,12.47
2018-01-11T11:59:15.998Z,13.57
2018-01-11T12:01:43.438Z,14.70
2018-01-11T12:04:10.867Z,13.87
2018-01-11T12:06:38.303Z,13.63
2018-01-11T12:09:05.755Z,13.63
2018-01-11T12:11:33.199Z,13.77
2018-01-11T12:14:01.391Z,15.57
2018-01-11T12:16:28.832Z,17.00
2018-01-11T12:18:56.260Z,14.23
2018-01-11T12:21:23.703Z,14.60
2018-01-11T12:23:51.951Z,16.90
2018-01-11T12:26:19.391Z,14.27
2018-01-11T12:28:46.976Z,14.10
2018-01-11T12:31:14.521Z,14.77
2018-01-11T12:33:41.948Z,14.03
2018-01-11T12:36:09.378Z,12.53
2018-01-11T12:38:36.811Z,12.53
2018-01-11T12:41:04.275Z,13.90
2018-01-11T12:43:31.703Z,14.53
2018-01-11T12:45:59.127Z,14.23
2018-01-11T12:48:26.559Z,13.40
2018-01-11T12:50:53.987Z,13.67
2018-01-11T12:53:21.422Z,12.20
2018-01-11T12:55:48.854Z,12.90
2018-01-11T12:58:16.287Z,12.80
2018-01-11T13:00:43.902Z,14.13
2018-01-11T13:03:11.343Z,12.60
2018-01-11T13:05:38.764Z,13.17
2018-01-11T13:08:06.970Z,13.13
2018-01-11T13:10:34.420Z,13.33
2018-01-11T13:13:01.851Z,14.90
2018-01-11T13:15:29.280Z,13.27
2018-01-11T13:17:56.715Z,15.20
2018-01-11T13:20:24.146Z,14.60
2018-01-11T13:22:51.590Z,14.77
2018-01-11T13:25:19.014Z,13.90
2018-01-11T13:27:46.446Z,14.17
2018-01-11T13:30:13.870Z,14.87
2018-01-11T13:32:41.303Z,14.23
2018-01-11T13:35:08.739Z,14.70
2018-01-11T13:37:36.181Z,13.50
2018-01-11T13:40:03.603Z,14.40
2018-01-11T13:42:31.031Z,14.23
2018-01-11T13:44:58.504Z,14.70
2018-01-11T13:47:25.899Z,15.70
2018-01-11T13:49:53.335Z,14.30
2018-01-11T13:52:20.759Z,14.70
2018-01-11T13:54:48.347Z,14.67
2018-01-11T13:57:15.767Z,14.13
2018-01-11T13:59:43.198Z,12.67
2018-01-11T14:02:10.624Z,13.83
2018-01-11T14:04:38.063Z,13.50
2018-01-11T14:07:05.495Z,12.60
2018-01-11T14:09:32.975Z,13.57
2018-01-11T14:12:01.123Z,13.13
2018-01-11T14:14:28.563Z,12.60
2018-01-11T14:16:55.986Z,14.05
2018-01-11T14:19:23.903Z,13.30
2018-01-11T14:21:51.331Z,12.87
2018-01-11T14:24:18.763Z,14.10
2018-01-11T14:26:46.219Z,13.47
2018-01-11T14:29:13.649Z,13.17
2018-01-11T14:31:41.082Z,13.60
2018-01-11T14:34:08.513Z,14.07
2018-01-11T14:36:35.963Z,14.60
2018-01-11T14:39:03.400Z,13.73
2018-01-11T14:41:30.827Z,13.70
2018-01-11T14:43:58.309Z,13.93
2018-01-11T14:46:25.747Z,13.80
2018-01-11T14:48:53.179Z,14.87
2018-01-11T14:51:20.614Z,14.30
2018-01-11T14:53:48.807Z,15.33
2018-01-11T14:56:16.247Z,15.53
2018-01-11T14:58:43.666Z,15.17
2018-01-11T15:01:11.155Z,14.93
2018-01-11T15:03:38.593Z,13.67
2018-01-11T15:06:06.019Z,15.90
2018-01-11T15:08:33.451Z,14.35
2018-01-11T15:11:00.880Z,14.97
2018-01-11T15:13:29.411Z,14.43
2018-01-11T15:15:56.827Z,14.10
2018-01-11T15:18:24.264Z,13.80
2018-01-11T15:20:51.692Z,12.80
2018-01-11T15:23:19.130Z,12.53
2018-01-11T15:25:46.559Z,14.80
2018-01-11T15:28:13.988Z,13.50
2018-01-11T15:30:42.187Z,14.00
2018-01-11T15:33:09.615Z,16.03
2018-01-11T15:35:37.046Z,13.70
2018-01-11T15:38:05.243Z,13.50
2018-01-11T15:40:32.675Z,15.80
2018-01-11T15:43:00.120Z,14.27
2018-01-11T15:45:27.547Z,15.20
2018-01-11T15:47:54.978Z,17.60
2018-01-11T15:50:22.415Z,22.60
2018-01-11T15:52:49.843Z,18.20
2018-01-11T15:55:17.386Z,16.70
2018-01-11T15:57:44.819Z,16.33
2018-01-11T16:00:12.260Z,16.50
2018-01-11T16:02:39.674Z,16.10
2018-01-11T16:05:07.110Z,15.13
2018-01-11T16:07:34.543Z,16.10
2018-01-11T16:10:01.971Z,16.20
2018-01-11T16:12:30.167Z,15.10
2018-01-11T16:14:57.593Z,15.23
2018-01-11T16:17:25.028Z,15.10
2018-01-11T16:19:52.446Z,14.77
2018-01-11T16:22:19.874Z,15.47
2018-01-11T16:24:48.072Z,14.00
2018-01-11T16:27:15.495Z,14.60
2018-01-11T16:29:42.918Z,14.80
2018-01-11T16:32:10.353Z,15.60
2018-01-11T16:34:37.775Z,17.13
2018-01-11T16:37:05.973Z,15.17
2018-01-11T16:39:33.400Z,16.50
2018-01-11T16:42:00.934Z,18.03
2018-01-11T16:44:28.338Z,17.60
2018-01-11T16:46:55.763Z,18.50
2018-01-11T16:49:23.191Z,15.73
2018-01-11T16:51:50.622Z,17.40
2018-01-11T16:54:18.046Z,17.50
2018-01-11T16:56:46.391Z,16.20
2018-01-11T16:59:13.805Z,16.70
2018-01-11T17:01:41.239Z,16.77
2018-01-11T17:04:08.659Z,19.30
2018-01-11T17:06:36.095Z,15.30
2018-01-11T17:09:03.567Z,17.27
2018-01-11T17:11:30.999Z,15.77
2018-01-11T17:13:58.620Z,16.20
2018-01-11T17:16:26.055Z,15.73
2018-01-11T17:18:54.238Z,15.93
2018-01-11T17:21:21.675Z,13.83
2018-01-11T17:23:49.090Z,16.07
2018-01-11T17:26:17.460Z,14.60
2018-01-11T17:28:44.890Z,16.83
2018-01-11T17:31:13.091Z,15.50
2018-01-11T17:33:40.515Z,17.20
2018-01-11T17:36:07.975Z,19.43
2018-01-11T17:38:35.444Z,15.87
2018-01-11T17:41:02.883Z,17.10
2018-01-11T17:43:30.312Z,19.80
2018-01-11T17:45:57.731Z,17.83
2018-01-11T17:48:25.159Z,17.00
2018-01-11T17:50:52.579Z,18.23
2018-01-11T17:53:20.011Z,18.67
2018-01-11T17:55:47.478Z,17.67
2018-01-11T17:58:14.854Z,19.43
2018-01-11T18:00:42.310Z,17.50
2018-01-11T18:03:09.716Z,19.10
2018-01-11T18:05:37.143Z,18.87
2018-01-11T18:08:04.609Z,18.00
2018-01-11T18:10:32.016Z,19.40
2018-01-11T18:12:59.442Z,19.23
2018-01-11T18:15:26.863Z,15.63
2018-01-11T18:17:55.071Z,16.50
2018-01-11T18:20:22.511Z,15.97
2018-01-11T18:22:49.914Z,17.03
2018-01-11T18:25:17.357Z,13.90
2018-01-11T18:27:44.802Z,16.10
2018-01-11T18:30:12.245Z,12.77
2018-01-11T18:32:39.673Z,16.10
2018-01-11T18:35:08.356Z,15.13
2018-01-11T18:37:36.538Z,15.93
2018-01-11T18:40:03.979Z,14.70
2018-01-11T18:42:31.399Z,16.43
2018-01-11T18:44:58.831Z,14.23
2018-01-11T18:47:26.291Z,15.67
2018-01-11T18:49:53.704Z,17.37
2018-01-11T18:52:21.903Z,18.50
2018-01-11T18:54:49.326Z,17.87
2018-01-11T18:57:16.755Z,16.47
2018-01-11T18:59:45.071Z,18.03
2018-01-11T19:02:12.507Z,18.23
2018-01-11T19:04:39.924Z,16.17
2018-01-11T19:07:07.417Z,18.03
2018-01-11T19:09:34.821Z,16.87
2018-01-11T19:12:02.259Z,16.60
2018-01-11T19:14:29.687Z,16.67
2018-01-11T19:16:57.122Z,18.63
2018-01-11T19:19:24.549Z,16.07
2018-01-11T19:21:51.983Z,15.73
2018-01-11T19:24:19.403Z,15.60
2018-01-11T19:26:46.831Z,18.27
2018-01-11T19:29:14.268Z,16.90
2018-01-11T19:31:41.682Z,17.17
2018-01-11T19:34:09.884Z,18.90
2018-01-11T19:36:37.323Z,17.90
2018-01-11T19:39:04.754Z,16.87
2018-01-11T19:41:32.942Z,17.60
2018-01-11T19:44:00.379Z,18.93
2018-01-11T19:46:27.803Z,17.90
2018-01-11T19:48:55.239Z,17.80
2018-01-11T19:51:22.659Z,17.07
2018-01-11T19:53:50.100Z,17.67
2018-01-11T19:56:18.286Z,17.40
2018-01-11T19:58:45.998Z,17.40
2018-01-11T20:01:13.423Z,13.70
2018-01-11T20:03:40.854Z,15.60
2018-01-11T20:06:08.274Z,18.20
2018-01-11T20:08:35.724Z,15.20
2018-01-11T20:11:03.150Z,14.10
2018-01-11T20:13:30.575Z,15.93
2018-01-11T20:15:58.007Z,15.80
2018-01-11T20:18:25.444Z,15.07
2018-01-11T20:20:52.875Z,17.00
2018-01-11T20:23:20.296Z,17.23
2018-01-11T20:25:47.722Z,16.87
2018-01-11T20:28:15.154Z,15.97
2018-01-11T20:30:42.591Z,14.20
2018-01-11T20:33:10.014Z,18.17
2018-01-11T20:35:37.456Z,19.43
2018-01-11T20:38:04.882Z,17.57
2018-01-11T20:40:32.300Z,16.60
2018-01-11T20:43:00.506Z,17.30
2018-01-11T20:45:27.931Z,18.67
2018-01-11T20:47:55.365Z,17.77
2018-01-11T20:50:22.787Z,16.53
2018-01-11T20:52:50.507Z,16.07
2018-01-11T20:55:18.701Z,15.87
2018-01-11T20:57:46.131Z,13.60
2018-01-11T21:00:13.556Z,14.30
2018-01-11T21:02:40.984Z,14.93
2018-01-11T21:05:08.419Z,15.60
2018-01-11T21:07:35.851Z,13.60
2018-01-11T21:10:04.044Z,14.23
2018-01-11T21:12:31.479Z,13.17
2018-01-11T21:14:58.895Z,14.17
2018-01-11T21:17:26.315Z,14.07
2018-01-11T21:19:53.752Z,13.40
2018-01-11T21:22:21.944Z,13.77
2018-01-11T21:24:49.379Z,14.00
2018-01-11T21:27:16.799Z,14.80
2018-01-11T21:29:44.229Z,13.43
2018-01-11T21:32:11.762Z,14.40
2018-01-11T21:34:39.194Z,13.70
2018-01-11T21:37:06.755Z,14.07
2018-01-11T21:39:34.135Z,15.87
2018-01-11T21:42:01.560Z,13.80
2018-01-11T21:44:28.997Z,13.10
2018-01-11T21:46:56.415Z,14.40
2018-01-11T21:49:23.841Z,16.37
2018-01-11T21:51:52.036Z,12.60
2018-01-11T21:54:19.461Z,12.97
2018-01-11T21:56:46.887Z,14.60
2018-01-11T21:59:14.326Z,13.97
2018-01-11T22:01:41.765Z,13.93
2018-01-11T22:04:09.182Z,14.40
2018-01-11T22:06:37.387Z,14.25
2018-01-11T22:09:04.811Z,12.73
2018-01-11T22:11:32.248Z,14.80
2018-01-11T22:13:59.684Z,13.07
2018-01-11T22:16:27.114Z,14.83
2018-01-11T22:18:54.550Z,13.67
2018-01-11T22:21:22.756Z,14.93
2018-01-11T22:23:50.182Z,13.13
2018-01-11T22:26:17.615Z,13.97
2018-01-11T22:28:45.031Z,15.43
2018-01-11T22:31:12.470Z,14.07
2018-01-11T22:33:39.895Z,13.40
2018-01-11T22:36:08.082Z,14.17
2018-01-11T22:38:35.519Z,14.17
2018-01-11T22:41:02.947Z,15.13
2018-01-11T22:43:30.383Z,16.35
2018-01-11T22:45:57.802Z,14.30
2018-01-11T22:48:25.346Z,13.57
2018-01-11T22:50:52.779Z,13.77
2018-01-11T22:53:20.203Z,12.23
2018-01-11T22:55:47.627Z,14.07
2018-01-11T22:58:15.823Z,13.13
2018-01-11T23:00:43.247Z,13.17
2018-01-11T23:03:10.678Z,13.90
2018-01-11T23:05:38.107Z,16.07
2018-01-11T23:08:05.663Z,13.60
2018-01-11T23:10:33.091Z,13.20
2018-01-11T23:13:00.511Z,14.00
2018-01-11T23:15:27.939Z,14.23
2018-01-11T23:17:55.480Z,14.70
2018-01-11T23:20:22.914Z,14.57
2018-01-11T23:22:50.339Z,15.13
2018-01-11T23:25:17.771Z,14.10
2018-01-11T23:27:45.195Z,13.97
2018-01-11T23:30:12.641Z,15.03
2018-01-11T23:32:40.810Z,14.37
2018-01-11T23:35:08.296Z,14.70
2018-01-11T23:37:35.718Z,14.30
2018-01-11T23:40:03.161Z,14.53
2018-01-11T23:42:30.583Z,14.10
2018-01-11T23:44:58.019Z,14.87
2018-01-11T23:47:25.438Z,14.73
2018-01-11T23:49:52.871Z,15.23
2018-01-11T23:52:21.059Z,15.10
2018-01-11T23:54:48.500Z,15.17
2018-01-11T23:57:15.914Z,16.00
2018-01-11T23:59:43.378Z,14.93
